Boris Syromyatnikov — UCUF — position and weather

sailwx.info

Track history (hours):
 
Tides and Currents Weather Stations Pressure Air Temp Water Temp Dewpoint Dewpoint Depression Visibility Wind Speed Wind Dir Waves Ship Positions

Boris Syromyatnikov

Last reported at 2015-Jan-27 01:11 UTC. Time now 2015-Jan-30 17:00 UTC.
Position N 58°23' E 005°19'.

Length 120 m; beam 19 m.

Type: Fishing. MMSI: 273529800.

Date/timePositionNaut miles runAvg speedWind from/ knotsBaromVisibWave heightAir tempDewpointWater temp
2015-Jan-27 01:11N 58°23' E 005°19'813.0
2015-Jan-27 00:33N 58°17' E 005°30'1312.7
2015-Jan-26 23:33N 58°09' E 005°49'1313.3
2015-Jan-26 22:33N 58°01' E 006°08'13312.1
2015-Jan-26 11:31N 57°48' E 010°17'1111.5
2015-Jan-26 10:34N 57°48' E 010°38'10 9.7
2015-Jan-26 09:33N 57°39' E 010°44'7 6.3
2015-Jan-26 08:31N 57°36' E 010°33'0 0.0
2015-Jan-26 07:31N 57°36' E 010°33'0 0.0
2015-Jan-26 02:31N 57°36' E 010°33'0 0.0
2015-Jan-25 23:28N 57°36' E 010°33'0 0.1
2015-Jan-25 21:33N 57°36' E 010°33'1110.8
2015-Jan-25 20:34N 57°36' E 010°53'9 9.3
2015-Jan-25 19:33N 57°36' E 011°10'1413.9
2015-Jan-25 18:33N 57°25' E 011°27'1413.9
2015-Jan-25 17:33N 57°12' E 011°36'1514.2
2015-Jan-25 16:29N 56°58' E 011°45'1314.2
2015-Jan-25 15:33N 56°46' E 011°53'1513.5
2015-Jan-25 14:28N 56°31' E 011°59'1213.1
2015-Jan-25 13:33N 56°20' E 012°04'1312.5
2015-Jan-25 12:33N 56°11' E 012°21'1313.3
2015-Jan-25 11:34N 56°03' E 012°40'1312.6
2015-Jan-25 10:34N 55°50' E 012°44'1111.4
2015-Jan-25 09:34N 55°39' E 012°42'1212.1
2015-Jan-25 08:34N 55°27' E 012°42'1010.4
2015-Jan-25 07:34N 55°17' E 012°47'1312.6
2015-Jan-25 06:34N 55°15' E 013°09'2013.2
2015-Jan-25 05:04N 55°14' E 013°43'2412.0
2015-Jan-25 03:06N 55°18' E 014°24'913.0
2015-Jan-25 02:27N 55°25' E 014°34'1112.5
2015-Jan-25 01:33N 55°26' E 014°53'1312.6
2015-Jan-25 00:33N 55°26' E 015°16'1513.3
2015-Jan-24 23:27N 55°27' E 015°41'9312.8
2015-Jan-24 16:13N 55°03' E 018°19'913.1
2015-Jan-24 15:33N 54°58' E 018°32'1313.3
2015-Jan-24 14:33N 54°50' E 018°50'1111.5
2015-Jan-24 13:33N 54°39' E 018°57'1313.0
2015-Jan-24 12:34N 54°29' E 018°44'6 5.8
2015-Jan-24 11:34N 54°24' E 018°40'1 1.2
2015-Jan-24 10:33N 54°22' E 018°40'0 0.0
2015-Jan-24 09:30N 54°22' E 018°40'0 0.0
2015-Jan-24 08:33N 54°22' E 018°40'0 0.0
2015-Jan-24 07:33N 54°22' E 018°40'0 0.0
2015-Jan-24 06:33N 54°22' E 018°40'0 0.0
2015-Jan-24 05:30N 54°22' E 018°40'0 0.0
2015-Jan-24 04:33N 54°22' E 018°40'0 0.0
2015-Jan-24 03:33N 54°22' E 018°40'0 0.0
2015-Jan-24 02:33N 54°22' E 018°40'0 0.0
2015-Jan-24 01:33N 54°22' E 018°40'0 0.0
2015-Jan-24 00:33N 54°22' E 018°40'0 0.0
2015-Jan-23 23:33N 54°22' E 018°40'0 0.0
2015-Jan-23 22:32N 54°22' E 018°40'0 0.0
2015-Jan-23 21:32N 54°22' E 018°40'0 0.0
2015-Jan-23 20:32N 54°22' E 018°40'0 0.0
2015-Jan-23 19:32N 54°22' E 018°40'0 0.0
2015-Jan-23 18:32N 54°22' E 018°40'0 0.0
2015-Jan-23 17:29N 54°22' E 018°40'0 0.0
2015-Jan-23 16:32N 54°22' E 018°40'0 0.0
2015-Jan-23 15:29N 54°22' E 018°40'0 0.0
2015-Jan-23 14:32N 54°22' E 018°40'0 0.0
2015-Jan-23 13:32N 54°22' E 018°40'0 0.0
2015-Jan-23 12:32N 54°22' E 018°40'0 0.0
2015-Jan-23 11:29N 54°22' E 018°40'0 0.0
2015-Jan-23 10:32N 54°22' E 018°40'0 0.0
2015-Jan-23 09:32N 54°22' E 018°40'0 0.0
2015-Jan-23 08:32N 54°22' E 018°40'0 0.0
2015-Jan-23 07:32N 54°22' E 018°40'0 0.0
2015-Jan-23 06:32N 54°22' E 018°40'0 0.0
2015-Jan-23 05:32N 54°22' E 018°40'0 0.0
2015-Jan-23 04:32N 54°22' E 018°40'0 0.0
2015-Jan-23 03:33N 54°22' E 018°40'0 0.0
2015-Jan-23 02:32N 54°22' E 018°40'0 0.0
2015-Jan-23 01:23N 54°22' E 018°40'0 0.0
2015-Jan-23 00:32N 54°22' E 018°40'0 0.0
2015-Jan-22 23:32N 54°22' E 018°40'0 0.0
2015-Jan-22 22:32N 54°22' E 018°40'0 0.0
2015-Jan-22 21:32N 54°22' E 018°40'0 0.0
2015-Jan-22 20:32N 54°22' E 018°40'0 0.0
2015-Jan-22 19:32N 54°22' E 018°40'0 0.0
2015-Jan-22 18:32N 54°22' E 018°40'0 0.0
2015-Jan-22 17:29N 54°22' E 018°40'0 0.0
2015-Jan-22 16:32N 54°22' E 018°40'0 0.0
2015-Jan-22 15:32N 54°22' E 018°40'0 0.0
2015-Jan-22 14:32N 54°22' E 018°40'0 0.0
2015-Jan-22 13:32N 54°22' E 018°40'0 0.0
2015-Jan-22 12:32N 54°22' E 018°40'0 0.0
2015-Jan-22 11:32N 54°22' E 018°40'0 0.0
2015-Jan-22 10:32N 54°22' E 018°40'0 0.0
2015-Jan-22 09:32N 54°22' E 018°40'0 0.0
2015-Jan-22 08:32N 54°22' E 018°40'0 0.0
2015-Jan-22 07:32N 54°22' E 018°40'0 0.0
2015-Jan-22 06:29N 54°22' E 018°40'0 0.0
2015-Jan-22 05:29N 54°22' E 018°40'0 0.0
2015-Jan-22 04:29N 54°22' E 018°40'0 0.0
2015-Jan-22 03:31N 54°22' E 018°40'0 0.0
2015-Jan-22 02:31N 54°22' E 018°40'0 0.0
2015-Jan-22 01:28N 54°22' E 018°40'0 0.0
2015-Jan-22 00:28N 54°22' E 018°40'0 0.0
2015-Jan-21 23:31N 54°22' E 018°40'0 0.0
2015-Jan-21 22:49N 54°22' E 018°40'0 0.1
2015-Jan-21 22:46N 54°22' E 018°40'0 0.0
2015-Jan-21 22:31N 54°22' E 018°40'0 0.0
2015-Jan-21 21:31N 54°22' E 018°40'0 0.0
2015-Jan-21 20:31N 54°22' E 018°40'0 0.0
2015-Jan-21 19:31N 54°22' E 018°40'0 0.0
2015-Jan-21 18:31N 54°22' E 018°40'0 0.0
2015-Jan-21 17:31N 54°22' E 018°40'0 0.0
2015-Jan-21 16:31N 54°22' E 018°40'0 0.0
2015-Jan-21 15:31N 54°22' E 018°40'0 0.0
2015-Jan-21 14:31N 54°22' E 018°40'0 0.0
2015-Jan-21 13:28N 54°22' E 018°40'0 0.0
2015-Jan-21 12:31N 54°22' E 018°40'0 0.0
2015-Jan-21 11:31N 54°22' E 018°40'0 0.0
2015-Jan-21 10:31N 54°22' E 018°40'0 0.0
2015-Jan-21 09:31N 54°22' E 018°40'0 0.0
2015-Jan-21 08:31N 54°22' E 018°40'0 0.0
2015-Jan-21 07:31N 54°22' E 018°40'0 0.0
2015-Jan-21 06:31N 54°22' E 018°40'0 0.0
2015-Jan-21 05:28N 54°22' E 018°40'0 0.0
2015-Jan-21 04:31N 54°22' E 018°40'0 0.0
2015-Jan-21 03:31N 54°22' E 018°40'0 0.0
2015-Jan-21 02:31N 54°22' E 018°40'0 0.0
2015-Jan-21 01:31N 54°22' E 018°40'0 0.0
2015-Jan-21 00:31N 54°22' E 018°40'0 0.0
2015-Jan-20 23:31N 54°22' E 018°40'0 0.0
2015-Jan-20 22:31N 54°22' E 018°40'0 0.0
2015-Jan-20 21:31N 54°22' E 018°40'0 0.0
2015-Jan-20 20:31N 54°22' E 018°40'0 0.0
2015-Jan-20 19:31N 54°22' E 018°40'0 0.0
2015-Jan-20 18:31N 54°22' E 018°40'0 0.0
2015-Jan-20 17:31N 54°22' E 018°40'0 0.0
2015-Jan-20 16:31N 54°22' E 018°40'0 0.0
2015-Jan-20 15:31N 54°22' E 018°40'0 0.0
2015-Jan-20 14:31N 54°22' E 018°40'0 0.0
2015-Jan-20 13:31N 54°22' E 018°40'0 0.0
2015-Jan-20 12:31N 54°22' E 018°40'0 0.0
2015-Jan-20 11:31N 54°22' E 018°40'0 0.0
2015-Jan-20 10:34N 54°22' E 018°40'0 0.0
2015-Jan-20 09:33N 54°22' E 018°40'0 0.0
2015-Jan-20 08:33N 54°22' E 018°40'0 0.0
2015-Jan-20 07:33N 54°22' E 018°40'0 0.0
2015-Jan-20 06:33N 54°22' E 018°40'0 0.0
2015-Jan-20 05:30N 54°22' E 018°40'0 0.0
2015-Jan-20 04:33N 54°22' E 018°40'0 0.0
2015-Jan-20 03:33N 54°22' E 018°40'0 0.0
2015-Jan-20 02:33N 54°22' E 018°40'0 0.0
2015-Jan-20 01:27N 54°22' E 018°40'0 0.0
2015-Jan-20 00:33N 54°22' E 018°40'0 0.0
2015-Jan-19 23:33N 54°22' E 018°40'0 0.0
2015-Jan-19 22:33N 54°22' E 018°40'0 0.0
2015-Jan-19 21:33N 54°22' E 018°40'0 0.0
2015-Jan-19 20:33N 54°22' E 018°40'0 0.0
2015-Jan-19 19:33N 54°22' E 018°40'0 0.0
2015-Jan-19 18:33N 54°22' E 018°40'0 0.0
2015-Jan-19 17:33N 54°22' E 018°40'0 0.0
2015-Jan-19 16:33N 54°22' E 018°40'0 0.0
2015-Jan-19 15:33N 54°22' E 018°40'0 0.0
2015-Jan-19 14:33N 54°22' E 018°40'0 0.0
2015-Jan-19 13:33N 54°22' E 018°40'0 0.0
2015-Jan-19 12:33N 54°22' E 018°40'0 0.0
2015-Jan-19 11:33N 54°22' E 018°40'0 0.0
2015-Jan-19 10:33N 54°22' E 018°40'0 0.0
2015-Jan-19 09:33N 54°22' E 018°40'0 0.0
2015-Jan-19 08:33N 54°22' E 018°40'0 0.0
2015-Jan-19 07:33N 54°22' E 018°40'0 0.0
2015-Jan-19 06:33N 54°22' E 018°40'0 0.0
2015-Jan-19 05:33N 54°22' E 018°40'0 0.0
2015-Jan-19 04:33N 54°22' E 018°40'0 0.0
2015-Jan-19 03:33N 54°22' E 018°40'0 0.0
2015-Jan-19 02:33N 54°22' E 018°40'0 0.0
2015-Jan-19 01:33N 54°22' E 018°40'0 0.0
2015-Jan-19 00:33N 54°22' E 018°40'0 0.0
2015-Jan-18 23:30N 54°22' E 018°40'0 0.0
2015-Jan-18 22:33N 54°22' E 018°40'0 0.0
2015-Jan-18 21:33N 54°22' E 018°40'0 0.0
2015-Jan-18 20:33N 54°22' E 018°40'0 0.0
2015-Jan-18 19:33N 54°22' E 018°40'0 0.0
2015-Jan-18 18:33N 54°22' E 018°40'0 0.0
2015-Jan-18 17:33N 54°22' E 018°40'0 0.0
2015-Jan-18 16:33N 54°22' E 018°40'0 0.0
2015-Jan-18 15:26N 54°22' E 018°40'0 0.0
2015-Jan-18 14:32N 54°22' E 018°40'0 0.0
2015-Jan-18 13:32N 54°22' E 018°40'0 0.0
2015-Jan-18 12:32N 54°22' E 018°40'0 0.0
2015-Jan-18 11:32N 54°22' E 018°40'0 0.0
2015-Jan-18 10:32N 54°22' E 018°40'0 0.0
2015-Jan-18 09:32N 54°22' E 018°40'0 0.0
2015-Jan-18 08:32N 54°22' E 018°40'0 0.0
2015-Jan-18 07:32N 54°22' E 018°40'0 0.0
2015-Jan-18 06:32N 54°22' E 018°40'0 0.0
2015-Jan-18 05:32N 54°22' E 018°40'0 0.0
2015-Jan-18 04:32N 54°22' E 018°40'0 0.0
2015-Jan-18 03:32N 54°22' E 018°40'0 0.0
2015-Jan-18 02:26N 54°22' E 018°40'0 0.0
2015-Jan-18 01:32N 54°22' E 018°40'0 0.0
2015-Jan-18 00:29N 54°22' E 018°40'0 0.0
2015-Jan-17 23:32N 54°22' E 018°40'0 0.0
2015-Jan-17 22:32N 54°22' E 018°40'0 0.0
2015-Jan-17 21:32N 54°22' E 018°40'0 0.0
2015-Jan-17 20:32N 54°22' E 018°40'0 0.0
2015-Jan-17 19:32N 54°22' E 018°40'0 0.0
2015-Jan-17 18:32N 54°22' E 018°40'0 0.0
2015-Jan-17 17:32N 54°22' E 018°40'0 0.0
2015-Jan-17 16:32N 54°22' E 018°40'0 0.0
2015-Jan-17 15:29N 54°22' E 018°40'0 0.0
2015-Jan-17 14:32N 54°22' E 018°40'0 0.0
2015-Jan-17 13:32N 54°22' E 018°40'0 0.0
2015-Jan-17 12:32N 54°22' E 018°40'0 0.0
2015-Jan-17 11:32N 54°22' E 018°40'0 0.0
2015-Jan-17 10:32N 54°22' E 018°40'0 0.0
2015-Jan-17 09:32N 54°22' E 018°40'0 0.0
2015-Jan-17 08:32N 54°22' E 018°40'0 0.0
2015-Jan-17 07:32N 54°22' E 018°40'0 0.0
2015-Jan-17 06:32N 54°22' E 018°40'0 0.0
2015-Jan-17 05:32N 54°22' E 018°40'0 0.0
2015-Jan-17 04:32N 54°22' E 018°40'0 0.0
2015-Jan-17 03:32N 54°22' E 018°40'0 0.0
2015-Jan-17 02:32N 54°22' E 018°40'0 0.0
2015-Jan-17 01:32N 54°22' E 018°40'  
Track history (hours):
 
Tides and Currents Weather Stations Pressure Air Temp Water Temp Dewpoint Dewpoint Depression Visibility Wind Speed Wind Dir Waves Ship Positions

Boris Syromyatnikov

Last reported at 2015-Jan-27 01:11 UTC. Time now 2015-Jan-30 17:00 UTC.
Position N 58°23' E 005°19'.

Length 120 m; beam 19 m.

Type: Fishing. MMSI: 273529800.

Date/timePositionNaut miles runAvg speedWind from/ knotsBaromVisibWave heightAir tempDewpointWater temp
2015-Jan-27 01:11N 58°23' E 005°19'813.0
2015-Jan-27 00:33N 58°17' E 005°30'1312.7
2015-Jan-26 23:33N 58°09' E 005°49'1313.3
2015-Jan-26 22:33N 58°01' E 006°08'13312.1
2015-Jan-26 11:31N 57°48' E 010°17'1111.5
2015-Jan-26 10:34N 57°48' E 010°38'10 9.7
2015-Jan-26 09:33N 57°39' E 010°44'7 6.3
2015-Jan-26 08:31N 57°36' E 010°33'0 0.0
2015-Jan-26 07:31N 57°36' E 010°33'0 0.0
2015-Jan-26 02:31N 57°36' E 010°33'0 0.0
2015-Jan-25 23:28N 57°36' E 010°33'0 0.1
2015-Jan-25 21:33N 57°36' E 010°33'1110.8
2015-Jan-25 20:34N 57°36' E 010°53'9 9.3
2015-Jan-25 19:33N 57°36' E 011°10'1413.9
2015-Jan-25 18:33N 57°25' E 011°27'1413.9
2015-Jan-25 17:33N 57°12' E 011°36'1514.2
2015-Jan-25 16:29N 56°58' E 011°45'1314.2
2015-Jan-25 15:33N 56°46' E 011°53'1513.5
2015-Jan-25 14:28N 56°31' E 011°59'1213.1
2015-Jan-25 13:33N 56°20' E 012°04'1312.5
2015-Jan-25 12:33N 56°11' E 012°21'1313.3
2015-Jan-25 11:34N 56°03' E 012°40'1312.6
2015-Jan-25 10:34N 55°50' E 012°44'1111.4
2015-Jan-25 09:34N 55°39' E 012°42'1212.1
2015-Jan-25 08:34N 55°27' E 012°42'1010.4
2015-Jan-25 07:34N 55°17' E 012°47'1312.6
2015-Jan-25 06:34N 55°15' E 013°09'2013.2
2015-Jan-25 05:04N 55°14' E 013°43'2412.0
2015-Jan-25 03:06N 55°18' E 014°24'913.0
2015-Jan-25 02:27N 55°25' E 014°34'1112.5
2015-Jan-25 01:33N 55°26' E 014°53'1312.6
2015-Jan-25 00:33N 55°26' E 015°16'1513.3
2015-Jan-24 23:27N 55°27' E 015°41'9312.8
2015-Jan-24 16:13N 55°03' E 018°19'913.1
2015-Jan-24 15:33N 54°58' E 018°32'1313.3
2015-Jan-24 14:33N 54°50' E 018°50'1111.5
2015-Jan-24 13:33N 54°39' E 018°57'1313.0
2015-Jan-24 12:34N 54°29' E 018°44'6 5.8
2015-Jan-24 11:34N 54°24' E 018°40'1 1.2
2015-Jan-24 10:33N 54°22' E 018°40'0 0.0
2015-Jan-24 09:30N 54°22' E 018°40'0 0.0
2015-Jan-24 08:33N 54°22' E 018°40'0 0.0
2015-Jan-24 07:33N 54°22' E 018°40'0 0.0
2015-Jan-24 06:33N 54°22' E 018°40'0 0.0
2015-Jan-24 05:30N 54°22' E 018°40'0 0.0
2015-Jan-24 04:33N 54°22' E 018°40'0 0.0
2015-Jan-24 03:33N 54°22' E 018°40'0 0.0
2015-Jan-24 02:33N 54°22' E 018°40'0 0.0
2015-Jan-24 01:33N 54°22' E 018°40'0 0.0
2015-Jan-24 00:33N 54°22' E 018°40'0 0.0
2015-Jan-23 23:33N 54°22' E 018°40'0 0.0
2015-Jan-23 22:32N 54°22' E 018°40'0 0.0
2015-Jan-23 21:32N 54°22' E 018°40'0 0.0
2015-Jan-23 20:32N 54°22' E 018°40'0 0.0
2015-Jan-23 19:32N 54°22' E 018°40'0 0.0
2015-Jan-23 18:32N 54°22' E 018°40'0 0.0
2015-Jan-23 17:29N 54°22' E 018°40'0 0.0
2015-Jan-23 16:32N 54°22' E 018°40'0 0.0
2015-Jan-23 15:29N 54°22' E 018°40'0 0.0
2015-Jan-23 14:32N 54°22' E 018°40'0 0.0
2015-Jan-23 13:32N 54°22' E 018°40'0 0.0
2015-Jan-23 12:32N 54°22' E 018°40'0 0.0
2015-Jan-23 11:29N 54°22' E 018°40'0 0.0
2015-Jan-23 10:32N 54°22' E 018°40'0 0.0
2015-Jan-23 09:32N 54°22' E 018°40'0 0.0
2015-Jan-23 08:32N 54°22' E 018°40'0 0.0
2015-Jan-23 07:32N 54°22' E 018°40'0 0.0
2015-Jan-23 06:32N 54°22' E 018°40'0 0.0
2015-Jan-23 05:32N 54°22' E 018°40'0 0.0
2015-Jan-23 04:32N 54°22' E 018°40'0 0.0
2015-Jan-23 03:33N 54°22' E 018°40'0 0.0
2015-Jan-23 02:32N 54°22' E 018°40'0 0.0
2015-Jan-23 01:23N 54°22' E 018°40'0 0.0
2015-Jan-23 00:32N 54°22' E 018°40'0 0.0
2015-Jan-22 23:32N 54°22' E 018°40'0 0.0
2015-Jan-22 22:32N 54°22' E 018°40'0 0.0
2015-Jan-22 21:32N 54°22' E 018°40'0 0.0
2015-Jan-22 20:32N 54°22' E 018°40'0 0.0
2015-Jan-22 19:32N 54°22' E 018°40'0 0.0
2015-Jan-22 18:32N 54°22' E 018°40'0 0.0
2015-Jan-22 17:29N 54°22' E 018°40'0 0.0
2015-Jan-22 16:32N 54°22' E 018°40'0 0.0
2015-Jan-22 15:32N 54°22' E 018°40'0 0.0
2015-Jan-22 14:32N 54°22' E 018°40'0 0.0
2015-Jan-22 13:32N 54°22' E 018°40'0 0.0
2015-Jan-22 12:32N 54°22' E 018°40'0 0.0
2015-Jan-22 11:32N 54°22' E 018°40'0 0.0
2015-Jan-22 10:32N 54°22' E 018°40'0 0.0
2015-Jan-22 09:32N 54°22' E 018°40'0 0.0
2015-Jan-22 08:32N 54°22' E 018°40'0 0.0
2015-Jan-22 07:32N 54°22' E 018°40'0 0.0
2015-Jan-22 06:29N 54°22' E 018°40'0 0.0
2015-Jan-22 05:29N 54°22' E 018°40'0 0.0
2015-Jan-22 04:29N 54°22' E 018°40'0 0.0
2015-Jan-22 03:31N 54°22' E 018°40'0 0.0
2015-Jan-22 02:31N 54°22' E 018°40'0 0.0
2015-Jan-22 01:28N 54°22' E 018°40'0 0.0
2015-Jan-22 00:28N 54°22' E 018°40'0 0.0
2015-Jan-21 23:31N 54°22' E 018°40'0 0.0
2015-Jan-21 22:49N 54°22' E 018°40'0 0.1
2015-Jan-21 22:46N 54°22' E 018°40'0 0.0
2015-Jan-21 22:31N 54°22' E 018°40'0 0.0
2015-Jan-21 21:31N 54°22' E 018°40'0 0.0
2015-Jan-21 20:31N 54°22' E 018°40'0 0.0
2015-Jan-21 19:31N 54°22' E 018°40'0 0.0
2015-Jan-21 18:31N 54°22' E 018°40'0 0.0
2015-Jan-21 17:31N 54°22' E 018°40'0 0.0
2015-Jan-21 16:31N 54°22' E 018°40'0 0.0
2015-Jan-21 15:31N 54°22' E 018°40'0 0.0
2015-Jan-21 14:31N 54°22' E 018°40'0 0.0
2015-Jan-21 13:28N 54°22' E 018°40'0 0.0
2015-Jan-21 12:31N 54°22' E 018°40'0 0.0
2015-Jan-21 11:31N 54°22' E 018°40'0 0.0
2015-Jan-21 10:31N 54°22' E 018°40'0 0.0
2015-Jan-21 09:31N 54°22' E 018°40'0 0.0
2015-Jan-21 08:31N 54°22' E 018°40'0 0.0
2015-Jan-21 07:31N 54°22' E 018°40'0 0.0
2015-Jan-21 06:31N 54°22' E 018°40'0 0.0
2015-Jan-21 05:28N 54°22' E 018°40'0 0.0
2015-Jan-21 04:31N 54°22' E 018°40'0 0.0
2015-Jan-21 03:31N 54°22' E 018°40'0 0.0
2015-Jan-21 02:31N 54°22' E 018°40'0 0.0
2015-Jan-21 01:31N 54°22' E 018°40'0 0.0
2015-Jan-21 00:31N 54°22' E 018°40'0 0.0
2015-Jan-20 23:31N 54°22' E 018°40'0 0.0
2015-Jan-20 22:31N 54°22' E 018°40'0 0.0
2015-Jan-20 21:31N 54°22' E 018°40'0 0.0
2015-Jan-20 20:31N 54°22' E 018°40'0 0.0
2015-Jan-20 19:31N 54°22' E 018°40'0 0.0
2015-Jan-20 18:31N 54°22' E 018°40'0 0.0
2015-Jan-20 17:31N 54°22' E 018°40'0 0.0
2015-Jan-20 16:31N 54°22' E 018°40'0 0.0
2015-Jan-20 15:31N 54°22' E 018°40'0 0.0
2015-Jan-20 14:31N 54°22' E 018°40'0 0.0
2015-Jan-20 13:31N 54°22' E 018°40'0 0.0
2015-Jan-20 12:31N 54°22' E 018°40'0 0.0
2015-Jan-20 11:31N 54°22' E 018°40'0 0.0
2015-Jan-20 10:34N 54°22' E 018°40'0 0.0
2015-Jan-20 09:33N 54°22' E 018°40'0 0.0
2015-Jan-20 08:33N 54°22' E 018°40'0 0.0
2015-Jan-20 07:33N 54°22' E 018°40'0 0.0
2015-Jan-20 06:33N 54°22' E 018°40'0 0.0
2015-Jan-20 05:30N 54°22' E 018°40'0 0.0
2015-Jan-20 04:33N 54°22' E 018°40'0 0.0
2015-Jan-20 03:33N 54°22' E 018°40'0 0.0
2015-Jan-20 02:33N 54°22' E 018°40'0 0.0
2015-Jan-20 01:27N 54°22' E 018°40'0 0.0
2015-Jan-20 00:33N 54°22' E 018°40'0 0.0
2015-Jan-19 23:33N 54°22' E 018°40'0 0.0
2015-Jan-19 22:33N 54°22' E 018°40'0 0.0
2015-Jan-19 21:33N 54°22' E 018°40'0 0.0
2015-Jan-19 20:33N 54°22' E 018°40'0 0.0
2015-Jan-19 19:33N 54°22' E 018°40'0 0.0
2015-Jan-19 18:33N 54°22' E 018°40'0 0.0
2015-Jan-19 17:33N 54°22' E 018°40'0 0.0
2015-Jan-19 16:33N 54°22' E 018°40'0 0.0
2015-Jan-19 15:33N 54°22' E 018°40'0 0.0
2015-Jan-19 14:33N 54°22' E 018°40'0 0.0
2015-Jan-19 13:33N 54°22' E 018°40'0 0.0
2015-Jan-19 12:33N 54°22' E 018°40'0 0.0
2015-Jan-19 11:33N 54°22' E 018°40'0 0.0
2015-Jan-19 10:33N 54°22' E 018°40'0 0.0
2015-Jan-19 09:33N 54°22' E 018°40'0 0.0
2015-Jan-19 08:33N 54°22' E 018°40'0 0.0
2015-Jan-19 07:33N 54°22' E 018°40'0 0.0
2015-Jan-19 06:33N 54°22' E 018°40'0 0.0
2015-Jan-19 05:33N 54°22' E 018°40'0 0.0
2015-Jan-19 04:33N 54°22' E 018°40'0 0.0
2015-Jan-19 03:33N 54°22' E 018°40'0 0.0
2015-Jan-19 02:33N 54°22' E 018°40'0 0.0
2015-Jan-19 01:33N 54°22' E 018°40'0 0.0
2015-Jan-19 00:33N 54°22' E 018°40'0 0.0
2015-Jan-18 23:30N 54°22' E 018°40'0 0.0
2015-Jan-18 22:33N 54°22' E 018°40'0 0.0
2015-Jan-18 21:33N 54°22' E 018°40'0 0.0
2015-Jan-18 20:33N 54°22' E 018°40'0 0.0
2015-Jan-18 19:33N 54°22' E 018°40'0 0.0
2015-Jan-18 18:33N 54°22' E 018°40'0 0.0
2015-Jan-18 17:33N 54°22' E 018°40'0 0.0
2015-Jan-18 16:33N 54°22' E 018°40'0 0.0
2015-Jan-18 15:26N 54°22' E 018°40'0 0.0
2015-Jan-18 14:32N 54°22' E 018°40'0 0.0
2015-Jan-18 13:32N 54°22' E 018°40'0 0.0
2015-Jan-18 12:32N 54°22' E 018°40'0 0.0
2015-Jan-18 11:32N 54°22' E 018°40'0 0.0
2015-Jan-18 10:32N 54°22' E 018°40'0 0.0
2015-Jan-18 09:32N 54°22' E 018°40'0 0.0
2015-Jan-18 08:32N 54°22' E 018°40'0 0.0
2015-Jan-18 07:32N 54°22' E 018°40'0 0.0
2015-Jan-18 06:32N 54°22' E 018°40'0 0.0
2015-Jan-18 05:32N 54°22' E 018°40'0 0.0
2015-Jan-18 04:32N 54°22' E 018°40'0 0.0
2015-Jan-18 03:32N 54°22' E 018°40'0 0.0
2015-Jan-18 02:26N 54°22' E 018°40'0 0.0
2015-Jan-18 01:32N 54°22' E 018°40'0 0.0
2015-Jan-18 00:29N 54°22' E 018°40'0 0.0
2015-Jan-17 23:32N 54°22' E 018°40'0 0.0
2015-Jan-17 22:32N 54°22' E 018°40'0 0.0
2015-Jan-17 21:32N 54°22' E 018°40'0 0.0
2015-Jan-17 20:32N 54°22' E 018°40'0 0.0
2015-Jan-17 19:32N 54°22' E 018°40'0 0.0
2015-Jan-17 18:32N 54°22' E 018°40'0 0.0
2015-Jan-17 17:32N 54°22' E 018°40'0 0.0
2015-Jan-17 16:32N 54°22' E 018°40'0 0.0
2015-Jan-17 15:29N 54°22' E 018°40'0 0.0
2015-Jan-17 14:32N 54°22' E 018°40'0 0.0
2015-Jan-17 13:32N 54°22' E 018°40'0 0.0
2015-Jan-17 12:32N 54°22' E 018°40'0 0.0
2015-Jan-17 11:32N 54°22' E 018°40'0 0.0
2015-Jan-17 10:32N 54°22' E 018°40'0 0.0
2015-Jan-17 09:32N 54°22' E 018°40'0 0.0
2015-Jan-17 08:32N 54°22' E 018°40'0 0.0
2015-Jan-17 07:32N 54°22' E 018°40'0 0.0
2015-Jan-17 06:32N 54°22' E 018°40'0 0.0
2015-Jan-17 05:32N 54°22' E 018°40'0 0.0
2015-Jan-17 04:32N 54°22' E 018°40'0 0.0
2015-Jan-17 03:32N 54°22' E 018°40'0 0.0
2015-Jan-17 02:32N 54°22' E 018°40'0 0.0
2015-Jan-17 01:32N 54°22' E 018°40'  

Dump ship's entire track history